sensor_id;sensor_type;location;lat;lon;timestamp;P1;durP1;ratioP1;P2;durP2;ratioP2
75316;SDS011;63913;51.492;10.368;2023-02-21T00:01:36;8.13;;;3.95;;
75316;SDS011;63913;51.492;10.368;2023-02-21T00:04:20;7.75;;;3.90;;
75316;SDS011;63913;51.492;10.368;2023-02-21T00:07:03;9.73;;;3.55;;
75316;SDS011;63913;51.492;10.368;2023-02-21T00:09:48;7.57;;;3.58;;
75316;SDS011;63913;51.492;10.368;2023-02-21T00:12:32;10.27;;;4.70;;
75316;SDS011;63913;51.492;10.368;2023-02-21T00:15:16;7.82;;;3.88;;
75316;SDS011;63913;51.492;10.368;2023-02-21T00:17:59;8.07;;;3.78;;
75316;SDS011;63913;51.492;10.368;2023-02-21T00:20:44;10.18;;;4.22;;
75316;SDS011;63913;51.492;10.368;2023-02-21T00:23:32;8.23;;;4.07;;
75316;SDS011;63913;51.492;10.368;2023-02-21T00:26:17;9.38;;;4.03;;
75316;SDS011;63913;51.492;10.368;2023-02-21T00:29:02;8.40;;;4.18;;
75316;SDS011;63913;51.492;10.368;2023-02-21T00:31:46;9.75;;;4.55;;
75316;SDS011;63913;51.492;10.368;2023-02-21T00:34:30;10.88;;;4.22;;
75316;SDS011;63913;51.492;10.368;2023-02-21T00:37:14;7.28;;;3.42;;
75316;SDS011;63913;51.492;10.368;2023-02-21T00:39:58;9.10;;;4.22;;
75316;SDS011;63913;51.492;10.368;2023-02-21T00:42:43;8.77;;;3.95;;
75316;SDS011;63913;51.492;10.368;2023-02-21T00:45:27;8.95;;;4.25;;
75316;SDS011;63913;51.492;10.368;2023-02-21T00:48:11;10.70;;;4.32;;
75316;SDS011;63913;51.492;10.368;2023-02-21T00:50:55;8.52;;;3.90;;
75316;SDS011;63913;51.492;10.368;2023-02-21T00:53:39;9.10;;;4.45;;
75316;SDS011;63913;51.492;10.368;2023-02-21T00:56:23;12.07;;;5.20;;
75316;SDS011;63913;51.492;10.368;2023-02-21T00:59:07;10.90;;;4.68;;
75316;SDS011;63913;51.492;10.368;2023-02-21T01:01:51;9.82;;;4.22;;
75316;SDS011;63913;51.492;10.368;2023-02-21T01:04:35;10.45;;;4.30;;
75316;SDS011;63913;51.492;10.368;2023-02-21T01:07:19;9.60;;;4.40;;
75316;SDS011;63913;51.492;10.368;2023-02-21T01:10:05;9.27;;;4.25;;
75316;SDS011;63913;51.492;10.368;2023-02-21T01:12:49;10.02;;;5.05;;
75316;SDS011;63913;51.492;10.368;2023-02-21T01:15:32;13.15;;;6.05;;
75316;SDS011;63913;51.492;10.368;2023-02-21T01:18:18;10.93;;;4.80;;
75316;SDS011;63913;51.492;10.368;2023-02-21T01:21:01;9.65;;;4.70;;
75316;SDS011;63913;51.492;10.368;2023-02-21T01:23:46;10.65;;;4.90;;
75316;SDS011;63913;51.492;10.368;2023-02-21T01:26:29;9.02;;;4.75;;
75316;SDS011;63913;51.492;10.368;2023-02-21T01:29:15;12.85;;;5.10;;
75316;SDS011;63913;51.492;10.368;2023-02-21T01:31:59;9.43;;;4.70;;
75316;SDS011;63913;51.492;10.368;2023-02-21T01:34:44;9.35;;;5.00;;
75316;SDS011;63913;51.492;10.368;2023-02-21T01:37:27;10.30;;;4.97;;
75316;SDS011;63913;51.492;10.368;2023-02-21T01:40:14;10.27;;;4.95;;
75316;SDS011;63913;51.492;10.368;2023-02-21T01:43:00;11.00;;;5.22;;
75316;SDS011;63913;51.492;10.368;2023-02-21T01:45:46;11.38;;;5.32;;
75316;SDS011;63913;51.492;10.368;2023-02-21T01:48:32;9.38;;;4.35;;
75316;SDS011;63913;51.492;10.368;2023-02-21T01:51:17;10.48;;;4.82;;
75316;SDS011;63913;51.492;10.368;2023-02-21T01:54:03;11.85;;;5.00;;
75316;SDS011;63913;51.492;10.368;2023-02-21T01:56:51;10.38;;;4.63;;
75316;SDS011;63913;51.492;10.368;2023-02-21T01:59:37;11.68;;;5.05;;
75316;SDS011;63913;51.492;10.368;2023-02-21T02:02:30;12.02;;;5.50;;
75316;SDS011;63913;51.492;10.368;2023-02-21T02:05:36;14.07;;;5.13;;
75316;SDS011;63913;51.492;10.368;2023-02-21T02:08:22;11.95;;;5.82;;
75316;SDS011;63913;51.492;10.368;2023-02-21T02:11:13;11.38;;;5.35;;
75316;SDS011;63913;51.492;10.368;2023-02-21T02:14:24;12.38;;;5.72;;
75316;SDS011;63913;51.492;10.368;2023-02-21T02:36:49;10.95;;;5.03;;
75316;SDS011;63913;51.492;10.368;2023-02-21T02:39:23;12.32;;;4.78;;
75316;SDS011;63913;51.492;10.368;2023-02-21T02:42:03;11.23;;;5.07;;
75316;SDS011;63913;51.492;10.368;2023-02-21T02:44:39;10.75;;;5.15;;
75316;SDS011;63913;51.492;10.368;2023-02-21T02:47:06;11.77;;;5.40;;
75316;SDS011;63913;51.492;10.368;2023-02-21T02:49:39;11.50;;;4.65;;
75316;SDS011;63913;51.492;10.368;2023-02-21T02:52:07;11.25;;;5.57;;
75316;SDS011;63913;51.492;10.368;2023-02-21T02:54:33;11.18;;;4.97;;
75316;SDS011;63913;51.492;10.368;2023-02-21T02:56:59;11.27;;;4.78;;
75316;SDS011;63913;51.492;10.368;2023-02-21T02:59:27;13.23;;;5.72;;
75316;SDS011;63913;51.492;10.368;2023-02-21T03:01:59;13.88;;;5.72;;
75316;SDS011;63913;51.492;10.368;2023-02-21T03:07:51;11.68;;;5.32;;
75316;SDS011;63913;51.492;10.368;2023-02-21T03:13:20;10.45;;;5.82;;
75316;SDS011;63913;51.492;10.368;2023-02-21T03:18:49;11.60;;;5.28;;
75316;SDS011;63913;51.492;10.368;2023-02-21T03:21:22;14.05;;;5.72;;
75316;SDS011;63913;51.492;10.368;2023-02-21T03:23:51;13.65;;;5.65;;
75316;SDS011;63913;51.492;10.368;2023-02-21T03:26:19;12.82;;;5.25;;
75316;SDS011;63913;51.492;10.368;2023-02-21T03:28:48;12.15;;;5.85;;
75316;SDS011;63913;51.492;10.368;2023-02-21T03:31:16;12.65;;;5.53;;
75316;SDS011;63913;51.492;10.368;2023-02-21T03:33:46;12.32;;;5.88;;
75316;SDS011;63913;51.492;10.368;2023-02-21T03:36:11;13.90;;;6.15;;
75316;SDS011;63913;51.492;10.368;2023-02-21T03:38:39;14.52;;;6.18;;
75316;SDS011;63913;51.492;10.368;2023-02-21T03:41:05;11.48;;;5.88;;
75316;SDS011;63913;51.492;10.368;2023-02-21T03:43:32;14.38;;;5.90;;
75316;SDS011;63913;51.492;10.368;2023-02-21T03:46:00;12.55;;;5.55;;
75316;SDS011;63913;51.492;10.368;2023-02-21T03:48:27;12.73;;;6.35;;
75316;SDS011;63913;51.492;10.368;2023-02-21T03:50:53;14.55;;;6.82;;
75316;SDS011;63913;51.492;10.368;2023-02-21T03:53:20;11.70;;;6.03;;
75316;SDS011;63913;51.492;10.368;2023-02-21T03:55:45;13.60;;;6.43;;
75316;SDS011;63913;51.492;10.368;2023-02-21T03:58:17;14.98;;;7.10;;
75316;SDS011;63913;51.492;10.368;2023-02-21T04:00:42;13.93;;;6.90;;
75316;SDS011;63913;51.492;10.368;2023-02-21T04:03:08;19.77;;;7.30;;
75316;SDS011;63913;51.492;10.368;2023-02-21T04:05:37;15.68;;;7.00;;
75316;SDS011;63913;51.492;10.368;2023-02-21T04:08:02;16.65;;;6.95;;
75316;SDS011;63913;51.492;10.368;2023-02-21T04:10:29;14.75;;;6.40;;
75316;SDS011;63913;51.492;10.368;2023-02-21T04:12:55;14.35;;;6.88;;
75316;SDS011;63913;51.492;10.368;2023-02-21T04:15:20;17.52;;;7.15;;
75316;SDS011;63913;51.492;10.368;2023-02-21T04:17:45;17.13;;;6.22;;
75316;SDS011;63913;51.492;10.368;2023-02-21T04:20:12;14.40;;;7.07;;
75316;SDS011;63913;51.492;10.368;2023-02-21T04:22:43;14.20;;;6.05;;
75316;SDS011;63913;51.492;10.368;2023-02-21T04:25:09;13.98;;;5.82;;
75316;SDS011;63913;51.492;10.368;2023-02-21T04:27:40;18.10;;;7.03;;
75316;SDS011;63913;51.492;10.368;2023-02-21T04:30:05;13.73;;;6.67;;
75316;SDS011;63913;51.492;10.368;2023-02-21T04:32:31;14.93;;;6.38;;
75316;SDS011;63913;51.492;10.368;2023-02-21T04:35:00;16.00;;;6.22;;
75316;SDS011;63913;51.492;10.368;2023-02-21T04:37:26;15.10;;;7.25;;
75316;SDS011;63913;51.492;10.368;2023-02-21T04:39:51;14.73;;;6.55;;
75316;SDS011;63913;51.492;10.368;2023-02-21T04:42:17;19.42;;;7.50;;
75316;SDS011;63913;51.492;10.368;2023-02-21T04:44:42;16.63;;;6.60;;
75316;SDS011;63913;51.492;10.368;2023-02-21T04:47:09;15.48;;;6.95;;
75316;SDS011;63913;51.492;10.368;2023-02-21T04:49:34;17.63;;;6.65;;
75316;SDS011;63913;51.492;10.368;2023-02-21T04:51:59;16.83;;;6.50;;
75316;SDS011;63913;51.492;10.368;2023-02-21T04:54:25;17.03;;;7.00;;
75316;SDS011;63913;51.492;10.368;2023-02-21T04:56:50;17.60;;;7.03;;
75316;SDS011;63913;51.492;10.368;2023-02-21T04:59:15;19.90;;;8.13;;
75316;SDS011;63913;51.492;10.368;2023-02-21T05:01:41;17.98;;;7.72;;
75316;SDS011;63913;51.492;10.368;2023-02-21T05:04:06;20.13;;;7.07;;
75316;SDS011;63913;51.492;10.368;2023-02-21T05:06:32;21.48;;;7.95;;
75316;SDS011;63913;51.492;10.368;2023-02-21T05:08:58;16.40;;;6.93;;
75316;SDS011;63913;51.492;10.368;2023-02-21T05:11:24;18.83;;;7.35;;
75316;SDS011;63913;51.492;10.368;2023-02-21T05:13:50;18.80;;;7.82;;
75316;SDS011;63913;51.492;10.368;2023-02-21T05:16:16;19.63;;;8.15;;
75316;SDS011;63913;51.492;10.368;2023-02-21T05:18:43;20.73;;;7.88;;
75316;SDS011;63913;51.492;10.368;2023-02-21T05:21:10;24.30;;;10.40;;
75316;SDS011;63913;51.492;10.368;2023-02-21T05:23:35;18.38;;;7.45;;
75316;SDS011;63913;51.492;10.368;2023-02-21T05:26:05;20.23;;;8.18;;
75316;SDS011;63913;51.492;10.368;2023-02-21T05:28:33;19.98;;;8.13;;
75316;SDS011;63913;51.492;10.368;2023-02-21T05:30:58;25.33;;;8.35;;
75316;SDS011;63913;51.492;10.368;2023-02-21T05:33:23;21.87;;;8.87;;
75316;SDS011;63913;51.492;10.368;2023-02-21T05:35:49;16.33;;;7.97;;
75316;SDS011;63913;51.492;10.368;2023-02-21T05:38:16;20.42;;;8.27;;
75316;SDS011;63913;51.492;10.368;2023-02-21T05:40:42;22.02;;;7.95;;
75316;SDS011;63913;51.492;10.368;2023-02-21T05:43:07;17.20;;;7.40;;
75316;SDS011;63913;51.492;10.368;2023-02-21T05:45:33;20.58;;;7.97;;
75316;SDS011;63913;51.492;10.368;2023-02-21T05:47:58;20.07;;;8.50;;
75316;SDS011;63913;51.492;10.368;2023-02-21T05:50:26;17.60;;;8.25;;
75316;SDS011;63913;51.492;10.368;2023-02-21T05:52:52;19.10;;;7.30;;
75316;SDS011;63913;51.492;10.368;2023-02-21T05:55:17;17.63;;;7.68;;
75316;SDS011;63913;51.492;10.368;2023-02-21T05:57:43;21.40;;;7.68;;
75316;SDS011;63913;51.492;10.368;2023-02-21T06:00:21;20.55;;;8.30;;
75316;SDS011;63913;51.492;10.368;2023-02-21T06:02:52;20.65;;;8.50;;
75316;SDS011;63913;51.492;10.368;2023-02-21T06:05:18;19.35;;;8.63;;
75316;SDS011;63913;51.492;10.368;2023-02-21T06:07:44;20.52;;;8.30;;
75316;SDS011;63913;51.492;10.368;2023-02-21T06:10:10;21.95;;;8.55;;
75316;SDS011;63913;51.492;10.368;2023-02-21T06:12:35;22.58;;;8.63;;
75316;SDS011;63913;51.492;10.368;2023-02-21T06:15:01;20.58;;;7.47;;
75316;SDS011;63913;51.492;10.368;2023-02-21T06:17:31;20.50;;;8.20;;
75316;SDS011;63913;51.492;10.368;2023-02-21T06:19:57;20.25;;;8.77;;
75316;SDS011;63913;51.492;10.368;2023-02-21T06:22:22;19.65;;;8.90;;
75316;SDS011;63913;51.492;10.368;2023-02-21T06:24:48;22.63;;;9.20;;
75316;SDS011;63913;51.492;10.368;2023-02-21T06:27:13;24.83;;;8.77;;
75316;SDS011;63913;51.492;10.368;2023-02-21T06:29:39;25.67;;;8.20;;
75316;SDS011;63913;51.492;10.368;2023-02-21T06:32:05;20.67;;;8.65;;
75316;SDS011;63913;51.492;10.368;2023-02-21T06:34:31;21.55;;;8.82;;
75316;SDS011;63913;51.492;10.368;2023-02-21T06:36:56;21.65;;;7.72;;
75316;SDS011;63913;51.492;10.368;2023-02-21T06:39:22;20.93;;;8.40;;
75316;SDS011;63913;51.492;10.368;2023-02-21T06:41:50;21.17;;;8.88;;
75316;SDS011;63913;51.492;10.368;2023-02-21T06:44:17;20.42;;;8.18;;
75316;SDS011;63913;51.492;10.368;2023-02-21T06:46:42;20.55;;;7.72;;
75316;SDS011;63913;51.492;10.368;2023-02-21T06:49:08;22.67;;;8.30;;
75316;SDS011;63913;51.492;10.368;2023-02-21T06:51:35;16.95;;;7.78;;
75316;SDS011;63913;51.492;10.368;2023-02-21T06:54:01;19.38;;;8.40;;
75316;SDS011;63913;51.492;10.368;2023-02-21T06:56:27;23.60;;;8.05;;
75316;SDS011;63913;51.492;10.368;2023-02-21T06:58:53;21.00;;;8.13;;
75316;SDS011;63913;51.492;10.368;2023-02-21T07:01:18;19.30;;;7.93;;
75316;SDS011;63913;51.492;10.368;2023-02-21T07:03:43;17.85;;;7.88;;
75316;SDS011;63913;51.492;10.368;2023-02-21T07:06:10;22.40;;;9.25;;
75316;SDS011;63913;51.492;10.368;2023-02-21T07:08:35;22.08;;;7.53;;
75316;SDS011;63913;51.492;10.368;2023-02-21T07:11:01;21.63;;;8.13;;
75316;SDS011;63913;51.492;10.368;2023-02-21T07:13:26;20.48;;;7.97;;
75316;SDS011;63913;51.492;10.368;2023-02-21T07:15:51;21.53;;;7.83;;
75316;SDS011;63913;51.492;10.368;2023-02-21T07:18:17;22.17;;;7.67;;
75316;SDS011;63913;51.492;10.368;2023-02-21T07:20:42;22.50;;;8.55;;
75316;SDS011;63913;51.492;10.368;2023-02-21T07:23:08;19.15;;;7.63;;
75316;SDS011;63913;51.492;10.368;2023-02-21T07:25:33;19.17;;;8.13;;
75316;SDS011;63913;51.492;10.368;2023-02-21T07:27:59;18.52;;;8.43;;
75316;SDS011;63913;51.492;10.368;2023-02-21T07:30:24;19.10;;;7.60;;
75316;SDS011;63913;51.492;10.368;2023-02-21T07:32:49;19.48;;;8.20;;
75316;SDS011;63913;51.492;10.368;2023-02-21T07:35:15;21.45;;;7.30;;
75316;SDS011;63913;51.492;10.368;2023-02-21T07:37:40;21.15;;;8.05;;
75316;SDS011;63913;51.492;10.368;2023-02-21T07:40:06;19.05;;;8.05;;
75316;SDS011;63913;51.492;10.368;2023-02-21T07:42:32;18.48;;;7.43;;
75316;SDS011;63913;51.492;10.368;2023-02-21T07:44:57;17.98;;;8.57;;
75316;SDS011;63913;51.492;10.368;2023-02-21T07:47:23;18.27;;;6.68;;
75316;SDS011;63913;51.492;10.368;2023-02-21T07:49:50;20.50;;;7.97;;
75316;SDS011;63913;51.492;10.368;2023-02-21T07:52:15;17.67;;;6.78;;
75316;SDS011;63913;51.492;10.368;2023-02-21T07:54:41;18.75;;;7.85;;
75316;SDS011;63913;51.492;10.368;2023-02-21T07:57:07;18.13;;;7.18;;
75316;SDS011;63913;51.492;10.368;2023-02-21T07:59:32;16.50;;;7.18;;
75316;SDS011;63913;51.492;10.368;2023-02-21T08:01:57;19.30;;;7.63;;
75316;SDS011;63913;51.492;10.368;2023-02-21T08:04:23;19.48;;;7.63;;
75316;SDS011;63913;51.492;10.368;2023-02-21T08:06:49;17.52;;;7.07;;
75316;SDS011;63913;51.492;10.368;2023-02-21T08:09:15;19.63;;;8.25;;
75316;SDS011;63913;51.492;10.368;2023-02-21T08:11:41;17.98;;;7.38;;
75316;SDS011;63913;51.492;10.368;2023-02-21T08:14:06;17.80;;;6.93;;
75316;SDS011;63913;51.492;10.368;2023-02-21T08:16:31;19.05;;;7.78;;
75316;SDS011;63913;51.492;10.368;2023-02-21T08:18:57;17.95;;;7.75;;
75316;SDS011;63913;51.492;10.368;2023-02-21T08:21:23;21.58;;;8.70;;
75316;SDS011;63913;51.492;10.368;2023-02-21T08:23:51;19.33;;;7.57;;
75316;SDS011;63913;51.492;10.368;2023-02-21T08:26:18;18.33;;;6.97;;
75316;SDS011;63913;51.492;10.368;2023-02-21T08:28:43;19.97;;;8.10;;
75316;SDS011;63913;51.492;10.368;2023-02-21T08:31:09;20.02;;;8.45;;
75316;SDS011;63913;51.492;10.368;2023-02-21T08:33:34;18.20;;;7.53;;
75316;SDS011;63913;51.492;10.368;2023-02-21T08:35:59;23.37;;;9.83;;
75316;SDS011;63913;51.492;10.368;2023-02-21T08:38:25;22.02;;;8.25;;
75316;SDS011;63913;51.492;10.368;2023-02-21T08:40:51;18.67;;;7.85;;
75316;SDS011;63913;51.492;10.368;2023-02-21T08:43:16;18.23;;;7.95;;
75316;SDS011;63913;51.492;10.368;2023-02-21T08:45:42;20.95;;;8.82;;
75316;SDS011;63913;51.492;10.368;2023-02-21T08:48:07;17.60;;;7.93;;
75316;SDS011;63913;51.492;10.368;2023-02-21T08:50:32;23.07;;;9.33;;
75316;SDS011;63913;51.492;10.368;2023-02-21T08:52:58;31.52;;;11.82;;
75316;SDS011;63913;51.492;10.368;2023-02-21T08:55:23;22.48;;;8.57;;
75316;SDS011;63913;51.492;10.368;2023-02-21T08:57:49;18.42;;;8.35;;
75316;SDS011;63913;51.492;10.368;2023-02-21T09:00:16;20.15;;;8.00;;
75316;SDS011;63913;51.492;10.368;2023-02-21T09:02:43;20.77;;;8.68;;
75316;SDS011;63913;51.492;10.368;2023-02-21T09:05:10;21.08;;;8.55;;
75316;SDS011;63913;51.492;10.368;2023-02-21T09:07:41;21.05;;;8.43;;
75316;SDS011;63913;51.492;10.368;2023-02-21T09:10:07;19.98;;;8.57;;
75316;SDS011;63913;51.492;10.368;2023-02-21T09:12:35;21.92;;;8.90;;
75316;SDS011;63913;51.492;10.368;2023-02-21T09:15:01;23.98;;;8.30;;
75316;SDS011;63913;51.492;10.368;2023-02-21T09:17:27;16.35;;;7.60;;
75316;SDS011;63913;51.492;10.368;2023-02-21T09:19:52;21.73;;;8.57;;
75316;SDS011;63913;51.492;10.368;2023-02-21T09:22:17;26.15;;;11.32;;
75316;SDS011;63913;51.492;10.368;2023-02-21T09:24:43;23.38;;;8.93;;
75316;SDS011;63913;51.492;10.368;2023-02-21T09:27:08;21.88;;;8.75;;
75316;SDS011;63913;51.492;10.368;2023-02-21T09:29:34;19.38;;;7.82;;
75316;SDS011;63913;51.492;10.368;2023-02-21T09:32:01;19.92;;;8.30;;
75316;SDS011;63913;51.492;10.368;2023-02-21T09:34:27;18.25;;;7.22;;
75316;SDS011;63913;51.492;10.368;2023-02-21T09:36:53;19.08;;;7.75;;
75316;SDS011;63913;51.492;10.368;2023-02-21T09:39:22;18.85;;;7.35;;
75316;SDS011;63913;51.492;10.368;2023-02-21T09:41:48;17.67;;;7.70;;
75316;SDS011;63913;51.492;10.368;2023-02-21T09:44:17;15.57;;;5.68;;
75316;SDS011;63913;51.492;10.368;2023-02-21T09:46:46;20.83;;;8.45;;
75316;SDS011;63913;51.492;10.368;2023-02-21T09:49:25;14.52;;;6.47;;
75316;SDS011;63913;51.492;10.368;2023-02-21T09:51:59;16.10;;;7.05;;
75316;SDS011;63913;51.492;10.368;2023-02-21T09:54:39;16.98;;;7.00;;
75316;SDS011;63913;51.492;10.368;2023-02-21T09:57:11;14.77;;;6.97;;
75316;SDS011;63913;51.492;10.368;2023-02-21T09:59:39;16.73;;;6.50;;
75316;SDS011;63913;51.492;10.368;2023-02-21T10:02:10;18.00;;;7.10;;
75316;SDS011;63913;51.492;10.368;2023-02-21T10:10:17;20.38;;;7.65;;
75316;SDS011;63913;51.492;10.368;2023-02-21T10:12:55;16.13;;;6.30;;
75316;SDS011;63913;51.492;10.368;2023-02-21T10:18:05;15.13;;;6.20;;
75316;SDS011;63913;51.492;10.368;2023-02-21T10:20:34;15.50;;;6.70;;
75316;SDS011;63913;51.492;10.368;2023-02-21T10:23:04;16.33;;;7.38;;
75316;SDS011;63913;51.492;10.368;2023-02-21T10:25:41;15.25;;;6.75;;
75316;SDS011;63913;51.492;10.368;2023-02-21T10:28:12;15.30;;;7.07;;
75316;SDS011;63913;51.492;10.368;2023-02-21T10:30:42;13.77;;;6.10;;
75316;SDS011;63913;51.492;10.368;2023-02-21T10:33:08;14.07;;;6.78;;
75316;SDS011;63913;51.492;10.368;2023-02-21T10:35:37;15.65;;;7.10;;
75316;SDS011;63913;51.492;10.368;2023-02-21T10:38:05;13.07;;;6.00;;
75316;SDS011;63913;51.492;10.368;2023-02-21T10:40:35;14.50;;;6.22;;
75316;SDS011;63913;51.492;10.368;2023-02-21T10:43:16;14.27;;;6.13;;
75316;SDS011;63913;51.492;10.368;2023-02-21T10:45:52;10.50;;;5.40;;
75316;SDS011;63913;51.492;10.368;2023-02-21T10:48:23;15.70;;;6.53;;
75316;SDS011;63913;51.492;10.368;2023-02-21T10:53:36;15.35;;;5.95;;
75316;SDS011;63913;51.492;10.368;2023-02-21T11:01:11;15.97;;;6.50;;
75316;SDS011;63913;51.492;10.368;2023-02-21T11:03:45;13.50;;;5.72;;
75316;SDS011;63913;51.492;10.368;2023-02-21T11:09:01;15.27;;;6.65;;
75316;SDS011;63913;51.492;10.368;2023-02-21T11:11:48;14.23;;;6.05;;
75316;SDS011;63913;51.492;10.368;2023-02-21T11:17:03;14.40;;;6.30;;
75316;SDS011;63913;51.492;10.368;2023-02-21T11:22:15;12.75;;;5.53;;
75316;SDS011;63913;51.492;10.368;2023-02-21T11:24:46;11.20;;;5.05;;
75316;SDS011;63913;51.492;10.368;2023-02-21T11:27:15;10.15;;;4.53;;
75316;SDS011;63913;51.492;10.368;2023-02-21T11:29:42;12.98;;;5.07;;
75316;SDS011;63913;51.492;10.368;2023-02-21T11:32:11;13.70;;;5.57;;
75316;SDS011;63913;51.492;10.368;2023-02-21T11:34:47;10.63;;;5.43;;
75316;SDS011;63913;51.492;10.368;2023-02-21T11:37:13;11.07;;;5.30;;
75316;SDS011;63913;51.492;10.368;2023-02-21T11:39:39;12.63;;;6.10;;
75316;SDS011;63913;51.492;10.368;2023-02-21T11:42:25;11.10;;;5.57;;
75316;SDS011;63913;51.492;10.368;2023-02-21T11:45:09;11.18;;;4.97;;
75316;SDS011;63913;51.492;10.368;2023-02-21T11:47:44;12.38;;;5.82;;
75316;SDS011;63913;51.492;10.368;2023-02-21T11:55:37;11.02;;;5.32;;
75316;SDS011;63913;51.492;10.368;2023-02-21T12:17:34;11.82;;;4.63;;
75316;SDS011;63913;51.492;10.368;2023-02-21T12:20:20;9.18;;;4.00;;
75316;SDS011;63913;51.492;10.368;2023-02-21T12:23:05;10.23;;;4.43;;
75316;SDS011;63913;51.492;10.368;2023-02-21T12:28:49;8.88;;;4.05;;
75316;SDS011;63913;51.492;10.368;2023-02-21T12:31:28;7.55;;;3.83;;
75316;SDS011;63913;51.492;10.368;2023-02-21T12:40:00;6.50;;;3.60;;
75316;SDS011;63913;51.492;10.368;2023-02-21T12:50:55;7.32;;;3.30;;
75316;SDS011;63913;51.492;10.368;2023-02-21T12:53:45;8.25;;;4.00;;
75316;SDS011;63913;51.492;10.368;2023-02-21T12:56:14;6.55;;;3.63;;
75316;SDS011;63913;51.492;10.368;2023-02-21T12:58:51;8.43;;;4.10;;
75316;SDS011;63913;51.492;10.368;2023-02-21T13:01:27;6.55;;;3.42;;
75316;SDS011;63913;51.492;10.368;2023-02-21T13:07:08;6.50;;;3.67;;
75316;SDS011;63913;51.492;10.368;2023-02-21T13:09:49;4.38;;;2.75;;
75316;SDS011;63913;51.492;10.368;2023-02-21T13:12:20;6.68;;;3.75;;
75316;SDS011;63913;51.492;10.368;2023-02-21T13:14:58;6.10;;;3.15;;
75316;SDS011;63913;51.492;10.368;2023-02-21T13:17:26;6.25;;;3.13;;
75316;SDS011;63913;51.492;10.368;2023-02-21T13:19:53;10.90;;;3.38;;
75316;SDS011;63913;51.492;10.368;2023-02-21T13:30:44;7.15;;;3.33;;
75316;SDS011;63913;51.492;10.368;2023-02-21T13:33:28;5.38;;;2.92;;
75316;SDS011;63913;51.492;10.368;2023-02-21T13:36:03;6.88;;;2.72;;
75316;SDS011;63913;51.492;10.368;2023-02-21T13:38:39;6.28;;;2.75;;
75316;SDS011;63913;51.492;10.368;2023-02-21T13:41:06;4.00;;;2.42;;
75316;SDS011;63913;51.492;10.368;2023-02-21T13:43:44;4.65;;;2.40;;
75316;SDS011;63913;51.492;10.368;2023-02-21T13:51:53;5.97;;;3.33;;
75316;SDS011;63913;51.492;10.368;2023-02-21T14:05:24;2.63;;;1.88;;
75316;SDS011;63913;51.492;10.368;2023-02-21T14:08:05;2.88;;;1.75;;
75316;SDS011;63913;51.492;10.368;2023-02-21T14:10:33;4.55;;;2.00;;
75316;SDS011;63913;51.492;10.368;2023-02-21T14:13:04;2.92;;;1.73;;
75316;SDS011;63913;51.492;10.368;2023-02-21T14:15:42;5.40;;;2.45;;
75316;SDS011;63913;51.492;10.368;2023-02-21T14:18:20;4.22;;;2.20;;
75316;SDS011;63913;51.492;10.368;2023-02-21T14:20:51;3.33;;;1.95;;
75316;SDS011;63913;51.492;10.368;2023-02-21T14:23:20;4.13;;;1.80;;
75316;SDS011;63913;51.492;10.368;2023-02-21T14:25:59;2.92;;;1.70;;
75316;SDS011;63913;51.492;10.368;2023-02-21T14:31:13;3.88;;;1.95;;
75316;SDS011;63913;51.492;10.368;2023-02-21T14:33:39;3.70;;;1.85;;
75316;SDS011;63913;51.492;10.368;2023-02-21T14:36:06;3.40;;;2.20;;
75316;SDS011;63913;51.492;10.368;2023-02-21T14:38:40;3.28;;;2.25;;
75316;SDS011;63913;51.492;10.368;2023-02-21T14:44:23;3.80;;;2.25;;
75316;SDS011;63913;51.492;10.368;2023-02-21T14:49:36;2.03;;;1.52;;
75316;SDS011;63913;51.492;10.368;2023-02-21T14:57:57;6.80;;;3.97;;
75316;SDS011;63913;51.492;10.368;2023-02-21T15:03:14;13.40;;;5.40;;
75316;SDS011;63913;51.492;10.368;2023-02-21T15:05:55;9.93;;;4.93;;
75316;SDS011;63913;51.492;10.368;2023-02-21T15:08:27;4.45;;;2.50;;
75316;SDS011;63913;51.492;10.368;2023-02-21T15:10:58;4.65;;;2.10;;
75316;SDS011;63913;51.492;10.368;2023-02-21T15:13:27;4.53;;;2.80;;
75316;SDS011;63913;51.492;10.368;2023-02-21T15:18:27;4.57;;;2.75;;
75316;SDS011;63913;51.492;10.368;2023-02-21T15:21:02;5.45;;;2.85;;
75316;SDS011;63913;51.492;10.368;2023-02-21T15:23:31;5.35;;;3.75;;
75316;SDS011;63913;51.492;10.368;2023-02-21T15:25:58;8.45;;;5.10;;
75316;SDS011;63913;51.492;10.368;2023-02-21T15:28:33;4.35;;;2.75;;
75316;SDS011;63913;51.492;10.368;2023-02-21T15:31:02;4.05;;;2.60;;
75316;SDS011;63913;51.492;10.368;2023-02-21T15:33:41;5.35;;;3.00;;
75316;SDS011;63913;51.492;10.368;2023-02-21T15:44:05;4.47;;;2.55;;
75316;SDS011;63913;51.492;10.368;2023-02-21T15:46:55;4.50;;;2.65;;
75316;SDS011;63913;51.492;10.368;2023-02-21T15:49:36;5.80;;;2.80;;
75316;SDS011;63913;51.492;10.368;2023-02-21T15:52:04;5.43;;;3.33;;
75316;SDS011;63913;51.492;10.368;2023-02-21T15:54:34;5.78;;;3.05;;
75316;SDS011;63913;51.492;10.368;2023-02-21T15:59:29;5.15;;;3.00;;
75316;SDS011;63913;51.492;10.368;2023-02-21T16:02:10;6.90;;;2.92;;
75316;SDS011;63913;51.492;10.368;2023-02-21T16:04:45;4.68;;;2.50;;
75316;SDS011;63913;51.492;10.368;2023-02-21T16:09:47;5.47;;;2.53;;
75316;SDS011;63913;51.492;10.368;2023-02-21T16:12:29;4.80;;;3.13;;
75316;SDS011;63913;51.492;10.368;2023-02-21T16:14:58;7.93;;;4.63;;
75316;SDS011;63913;51.492;10.368;2023-02-21T16:17:33;6.90;;;3.95;;
75316;SDS011;63913;51.492;10.368;2023-02-21T16:20:46;7.78;;;4.40;;
75316;SDS011;63913;51.492;10.368;2023-02-21T16:26:00;13.57;;;8.90;;
75316;SDS011;63913;51.492;10.368;2023-02-21T16:28:36;6.35;;;2.97;;
75316;SDS011;63913;51.492;10.368;2023-02-21T16:31:03;6.93;;;3.45;;
75316;SDS011;63913;51.492;10.368;2023-02-21T16:33:31;4.43;;;2.97;;
75316;SDS011;63913;51.492;10.368;2023-02-21T16:35:57;6.20;;;2.72;;
75316;SDS011;63913;51.492;10.368;2023-02-21T16:38:24;13.55;;;6.60;;
75316;SDS011;63913;51.492;10.368;2023-02-21T16:40:51;5.60;;;2.80;;
75316;SDS011;63913;51.492;10.368;2023-02-21T16:43:18;4.82;;;2.53;;
75316;SDS011;63913;51.492;10.368;2023-02-21T16:45:45;7.07;;;3.55;;
75316;SDS011;63913;51.492;10.368;2023-02-21T16:48:16;7.53;;;3.90;;
75316;SDS011;63913;51.492;10.368;2023-02-21T16:50:50;12.05;;;6.80;;
75316;SDS011;63913;51.492;10.368;2023-02-21T16:53:16;8.85;;;5.07;;
75316;SDS011;63913;51.492;10.368;2023-02-21T16:55:43;6.28;;;4.20;;
75316;SDS011;63913;51.492;10.368;2023-02-21T16:58:20;8.88;;;3.88;;
75316;SDS011;63913;51.492;10.368;2023-02-21T17:00:58;7.55;;;4.40;;
75316;SDS011;63913;51.492;10.368;2023-02-21T17:03:25;7.50;;;4.28;;
75316;SDS011;63913;51.492;10.368;2023-02-21T17:05:52;8.35;;;4.53;;
75316;SDS011;63913;51.492;10.368;2023-02-21T17:08:19;8.77;;;4.97;;
75316;SDS011;63913;51.492;10.368;2023-02-21T17:10:45;6.20;;;3.40;;
75316;SDS011;63913;51.492;10.368;2023-02-21T17:13:10;9.10;;;4.80;;
75316;SDS011;63913;51.492;10.368;2023-02-21T17:15:35;8.68;;;4.70;;
75316;SDS011;63913;51.492;10.368;2023-02-21T17:18:01;12.98;;;5.75;;
75316;SDS011;63913;51.492;10.368;2023-02-21T17:20:26;16.33;;;8.20;;
75316;SDS011;63913;51.492;10.368;2023-02-21T17:22:52;27.58;;;11.82;;
75316;SDS011;63913;51.492;10.368;2023-02-21T17:25:19;55.03;;;21.17;;
75316;SDS011;63913;51.492;10.368;2023-02-21T17:27:46;23.67;;;10.50;;
75316;SDS011;63913;51.492;10.368;2023-02-21T17:30:12;8.30;;;4.70;;